Terminal Aerodrome Forecast
Issued by NWS

Home | Current Version | Previous Version | Text Only | Print | Product List | Glossary On
Versions: 1 2 3 4 5 6 7 8 9 10 11 12
906
FTUS45 KPSR 102320
TAFIPL
TAF
KIPL 102320Z 1100/1124 VRB03KT P6SM SCT250
     FM110300 27006KT P6SM BKN200
     FM111400 VRB03KT P6SM SCT150 BKN250=

USA.gov is the U.S. government's official web portal to all federal, state and local government web resources and services.